sensor_id;sensor_type;location;lat;lon;timestamp;temperature;humidity
78708;SHT31;68037;51.978;5.650;2023-08-17T00:01:55;22.9;55.3
78708;SHT31;68037;51.978;5.650;2023-08-17T00:04:25;22.9;55.2
78708;SHT31;68037;51.978;5.650;2023-08-17T00:06:55;22.9;55.3
78708;SHT31;68037;51.978;5.650;2023-08-17T00:09:25;22.9;55.4
78708;SHT31;68037;51.978;5.650;2023-08-17T00:11:55;22.8;55.5
78708;SHT31;68037;51.978;5.650;2023-08-17T00:14:25;22.8;55.5
78708;SHT31;68037;51.978;5.650;2023-08-17T00:16:56;22.8;55.5
78708;SHT31;68037;51.978;5.650;2023-08-17T00:19:26;22.7;55.2
78708;SHT31;68037;51.978;5.650;2023-08-17T00:21:55;22.7;55.2
78708;SHT31;68037;51.978;5.650;2023-08-17T00:24:26;22.7;55.4
78708;SHT31;68037;51.978;5.650;2023-08-17T00:26:55;22.6;55.5
78708;SHT31;68037;51.978;5.650;2023-08-17T00:29:25;22.6;55.4
78708;SHT31;68037;51.978;5.650;2023-08-17T00:31:55;22.6;55.7
78708;SHT31;68037;51.978;5.650;2023-08-17T00:34:25;22.6;55.5
78708;SHT31;68037;51.978;5.650;2023-08-17T00:36:55;22.6;55.3
78708;SHT31;68037;51.978;5.650;2023-08-17T00:39:25;22.5;55.7
78708;SHT31;68037;51.978;5.650;2023-08-17T00:41:54;22.5;55.6
78708;SHT31;68037;51.978;5.650;2023-08-17T00:44:24;22.5;55.7
78708;SHT31;68037;51.978;5.650;2023-08-17T00:46:53;22.5;55.7
78708;SHT31;68037;51.978;5.650;2023-08-17T00:49:26;22.5;55.9
78708;SHT31;68037;51.978;5.650;2023-08-17T00:51:56;22.4;56.2
78708;SHT31;68037;51.978;5.650;2023-08-17T00:54:27;22.4;56.1
78708;SHT31;68037;51.978;5.650;2023-08-17T00:56:59;22.4;56.4
78708;SHT31;68037;51.978;5.650;2023-08-17T00:59:33;22.3;56.5
78708;SHT31;68037;51.978;5.650;2023-08-17T01:02:03;22.3;56.6
78708;SHT31;68037;51.978;5.650;2023-08-17T01:04:33;22.3;56.5
78708;SHT31;68037;51.978;5.650;2023-08-17T01:07:02;22.2;56.6
78708;SHT31;68037;51.978;5.650;2023-08-17T01:09:32;22.2;56.5
78708;SHT31;68037;51.978;5.650;2023-08-17T01:12:11;22.2;56.8
78708;SHT31;68037;51.978;5.650;2023-08-17T01:14:54;22.1;57.0
78708;SHT31;68037;51.978;5.650;2023-08-17T01:17:31;22.1;57.0
78708;SHT31;68037;51.978;5.650;2023-08-17T01:20:02;22.1;57.1
78708;SHT31;68037;51.978;5.650;2023-08-17T01:22:35;22.1;56.9
78708;SHT31;68037;51.978;5.650;2023-08-17T01:25:06;22.0;57.4
78708;SHT31;68037;51.978;5.650;2023-08-17T01:27:40;22.0;57.4
78708;SHT31;68037;51.978;5.650;2023-08-17T01:30:15;22.0;57.7
78708;SHT31;68037;51.978;5.650;2023-08-17T01:32:50;22.0;57.5
78708;SHT31;68037;51.978;5.650;2023-08-17T01:35:30;22.0;57.3
78708;SHT31;68037;51.978;5.650;2023-08-17T01:38:07;22.0;57.5
78708;SHT31;68037;51.978;5.650;2023-08-17T01:40:37;22.0;57.4
78708;SHT31;68037;51.978;5.650;2023-08-17T01:43:07;22.0;57.5
78708;SHT31;68037;51.978;5.650;2023-08-17T01:45:37;22.0;59.4
78708;SHT31;68037;51.978;5.650;2023-08-17T01:48:09;22.0;59.4
78708;SHT31;68037;51.978;5.650;2023-08-17T01:50:39;21.9;59.9
78708;SHT31;68037;51.978;5.650;2023-08-17T01:53:08;21.9;59.5
78708;SHT31;68037;51.978;5.650;2023-08-17T01:55:39;21.8;59.8
78708;SHT31;68037;51.978;5.650;2023-08-17T01:58:08;21.8;60.8
78708;SHT31;68037;51.978;5.650;2023-08-17T02:00:38;21.7;60.8
78708;SHT31;68037;51.978;5.650;2023-08-17T02:03:09;21.7;61.3
78708;SHT31;68037;51.978;5.650;2023-08-17T02:05:39;21.6;61.8
78708;SHT31;68037;51.978;5.650;2023-08-17T02:08:13;21.6;61.8
78708;SHT31;68037;51.978;5.650;2023-08-17T02:10:42;21.6;61.6
78708;SHT31;68037;51.978;5.650;2023-08-17T02:13:14;21.5;61.1
78708;SHT31;68037;51.978;5.650;2023-08-17T02:15:43;21.5;61.7
78708;SHT31;68037;51.978;5.650;2023-08-17T02:18:13;21.4;62.2
78708;SHT31;68037;51.978;5.650;2023-08-17T02:20:42;21.4;62.0
78708;SHT31;68037;51.978;5.650;2023-08-17T02:23:12;21.4;62.0
78708;SHT31;68037;51.978;5.650;2023-08-17T02:25:42;21.4;61.2
78708;SHT31;68037;51.978;5.650;2023-08-17T02:28:11;21.4;61.6
78708;SHT31;68037;51.978;5.650;2023-08-17T02:30:42;21.4;61.5
78708;SHT31;68037;51.978;5.650;2023-08-17T02:33:13;21.3;61.6
78708;SHT31;68037;51.978;5.650;2023-08-17T02:35:42;21.3;61.8
78708;SHT31;68037;51.978;5.650;2023-08-17T02:38:17;21.3;61.9
78708;SHT31;68037;51.978;5.650;2023-08-17T02:40:48;21.3;62.6
78708;SHT31;68037;51.978;5.650;2023-08-17T02:43:18;21.3;61.3
78708;SHT31;68037;51.978;5.650;2023-08-17T02:45:47;21.2;62.0
78708;SHT31;68037;51.978;5.650;2023-08-17T02:48:17;21.2;61.7
78708;SHT31;68037;51.978;5.650;2023-08-17T02:50:49;21.2;62.1
78708;SHT31;68037;51.978;5.650;2023-08-17T02:53:19;21.2;62.7
78708;SHT31;68037;51.978;5.650;2023-08-17T02:55:48;21.2;62.0
78708;SHT31;68037;51.978;5.650;2023-08-17T02:58:18;21.2;62.1
78708;SHT31;68037;51.978;5.650;2023-08-17T03:00:47;21.2;62.3
78708;SHT31;68037;51.978;5.650;2023-08-17T03:03:20;21.2;61.3
78708;SHT31;68037;51.978;5.650;2023-08-17T03:05:49;21.2;61.8
78708;SHT31;68037;51.978;5.650;2023-08-17T03:08:19;21.1;62.2
78708;SHT31;68037;51.978;5.650;2023-08-17T03:10:48;21.1;61.7
78708;SHT31;68037;51.978;5.650;2023-08-17T03:13:18;21.1;62.0
78708;SHT31;68037;51.978;5.650;2023-08-17T03:15:48;21.1;61.4
78708;SHT31;68037;51.978;5.650;2023-08-17T03:18:17;21.1;60.8
78708;SHT31;68037;51.978;5.650;2023-08-17T03:20:47;21.1;61.3
78708;SHT31;68037;51.978;5.650;2023-08-17T03:23:16;21.1;60.8
78708;SHT31;68037;51.978;5.650;2023-08-17T03:25:50;21.1;61.0
78708;SHT31;68037;51.978;5.650;2023-08-17T03:28:20;21.1;60.9
78708;SHT31;68037;51.978;5.650;2023-08-17T03:30:50;21.1;61.0
78708;SHT31;68037;51.978;5.650;2023-08-17T03:33:19;21.1;60.6
78708;SHT31;68037;51.978;5.650;2023-08-17T03:35:49;21.1;60.9
78708;SHT31;68037;51.978;5.650;2023-08-17T03:38:18;21.1;60.2
78708;SHT31;68037;51.978;5.650;2023-08-17T03:40:48;21.1;60.5
78708;SHT31;68037;51.978;5.650;2023-08-17T03:43:19;21.1;60.4
78708;SHT31;68037;51.978;5.650;2023-08-17T03:45:50;21.1;60.3
78708;SHT31;68037;51.978;5.650;2023-08-17T03:48:19;21.0;60.3
78708;SHT31;68037;51.978;5.650;2023-08-17T03:50:53;21.0;60.5
78708;SHT31;68037;51.978;5.650;2023-08-17T03:53:23;21.0;60.1
78708;SHT31;68037;51.978;5.650;2023-08-17T03:55:52;21.0;60.3
78708;SHT31;68037;51.978;5.650;2023-08-17T03:58:22;20.9;60.3
78708;SHT31;68037;51.978;5.650;2023-08-17T04:00:54;20.9;60.7
78708;SHT31;68037;51.978;5.650;2023-08-17T04:03:23;20.9;60.9
78708;SHT31;68037;51.978;5.650;2023-08-17T04:05:53;20.9;60.4
78708;SHT31;68037;51.978;5.650;2023-08-17T04:08:23;20.9;60.8
78708;SHT31;68037;51.978;5.650;2023-08-17T04:10:52;20.9;60.5
78708;SHT31;68037;51.978;5.650;2023-08-17T04:13:22;20.8;60.6
78708;SHT31;68037;51.978;5.650;2023-08-17T04:15:52;20.8;60.6
78708;SHT31;68037;51.978;5.650;2023-08-17T04:18:22;20.8;61.1
78708;SHT31;68037;51.978;5.650;2023-08-17T04:20:51;20.7;61.0
78708;SHT31;68037;51.978;5.650;2023-08-17T04:23:23;20.7;61.0
78708;SHT31;68037;51.978;5.650;2023-08-17T04:25:53;20.6;61.0
78708;SHT31;68037;51.978;5.650;2023-08-17T04:28:24;20.6;61.3
78708;SHT31;68037;51.978;5.650;2023-08-17T04:30:54;20.6;61.3
78708;SHT31;68037;51.978;5.650;2023-08-17T04:33:25;20.5;61.4
78708;SHT31;68037;51.978;5.650;2023-08-17T04:35:55;20.5;61.9
78708;SHT31;68037;51.978;5.650;2023-08-17T04:38:26;20.5;61.6
78708;SHT31;68037;51.978;5.650;2023-08-17T04:40:56;20.5;61.7
78708;SHT31;68037;51.978;5.650;2023-08-17T04:43:26;20.5;61.9
78708;SHT31;68037;51.978;5.650;2023-08-17T04:45:55;20.4;62.1
78708;SHT31;68037;51.978;5.650;2023-08-17T04:48:25;20.4;62.0
78708;SHT31;68037;51.978;5.650;2023-08-17T04:50:55;20.4;61.9
78708;SHT31;68037;51.978;5.650;2023-08-17T04:53:24;20.4;62.1
78708;SHT31;68037;51.978;5.650;2023-08-17T04:55:54;20.5;61.8
78708;SHT31;68037;51.978;5.650;2023-08-17T04:58:23;20.5;61.9
78708;SHT31;68037;51.978;5.650;2023-08-17T05:00:55;20.5;61.4
78708;SHT31;68037;51.978;5.650;2023-08-17T05:03:27;20.5;61.7
78708;SHT31;68037;51.978;5.650;2023-08-17T05:05:58;20.5;61.8
78708;SHT31;68037;51.978;5.650;2023-08-17T05:08:27;20.5;61.8
78708;SHT31;68037;51.978;5.650;2023-08-17T05:10:57;20.5;61.8
78708;SHT31;68037;51.978;5.650;2023-08-17T05:13:26;20.5;61.4
78708;SHT31;68037;51.978;5.650;2023-08-17T05:15:56;20.5;61.5
78708;SHT31;68037;51.978;5.650;2023-08-17T05:18:25;20.4;61.8
78708;SHT31;68037;51.978;5.650;2023-08-17T05:20:55;20.4;61.8
78708;SHT31;68037;51.978;5.650;2023-08-17T05:23:24;20.4;62.0
78708;SHT31;68037;51.978;5.650;2023-08-17T05:25:54;20.4;61.9
78708;SHT31;68037;51.978;5.650;2023-08-17T05:28:23;20.5;62.1
78708;SHT31;68037;51.978;5.650;2023-08-17T05:30:55;20.5;61.8
78708;SHT31;68037;51.978;5.650;2023-08-17T05:33:25;20.5;61.9
78708;SHT31;68037;51.978;5.650;2023-08-17T05:35:55;20.5;61.7
78708;SHT31;68037;51.978;5.650;2023-08-17T05:38:25;20.5;61.5
78708;SHT31;68037;51.978;5.650;2023-08-17T05:40:59;20.5;62.0
78708;SHT31;68037;51.978;5.650;2023-08-17T05:43:29;20.5;62.1
78708;SHT31;68037;51.978;5.650;2023-08-17T05:45:59;20.5;62.5
78708;SHT31;68037;51.978;5.650;2023-08-17T05:48:28;20.6;61.6
78708;SHT31;68037;51.978;5.650;2023-08-17T05:50:58;20.6;61.8
78708;SHT31;68037;51.978;5.650;2023-08-17T05:53:27;20.6;61.9
78708;SHT31;68037;51.978;5.650;2023-08-17T05:55:58;20.6;61.5
78708;SHT31;68037;51.978;5.650;2023-08-17T05:58:28;20.6;61.2
78708;SHT31;68037;51.978;5.650;2023-08-17T06:01:05;20.6;61.4
78708;SHT31;68037;51.978;5.650;2023-08-17T06:03:36;20.5;61.7
78708;SHT31;68037;51.978;5.650;2023-08-17T06:06:11;20.5;61.9
78708;SHT31;68037;51.978;5.650;2023-08-17T06:08:41;20.5;61.9
78708;SHT31;68037;51.978;5.650;2023-08-17T06:11:10;20.5;62.1
78708;SHT31;68037;51.978;5.650;2023-08-17T06:13:40;20.5;62.2
78708;SHT31;68037;51.978;5.650;2023-08-17T06:16:09;20.5;62.0
78708;SHT31;68037;51.978;5.650;2023-08-17T06:18:40;20.5;62.3
78708;SHT31;68037;51.978;5.650;2023-08-17T06:21:10;20.5;62.5
78708;SHT31;68037;51.978;5.650;2023-08-17T06:23:39;20.5;62.9
78708;SHT31;68037;51.978;5.650;2023-08-17T06:26:09;20.5;63.3
78708;SHT31;68037;51.978;5.650;2023-08-17T06:28:39;20.5;63.1
78708;SHT31;68037;51.978;5.650;2023-08-17T06:31:09;20.6;62.8
78708;SHT31;68037;51.978;5.650;2023-08-17T06:33:39;20.6;63.2
78708;SHT31;68037;51.978;5.650;2023-08-17T06:36:08;20.7;62.7
78708;SHT31;68037;51.978;5.650;2023-08-17T06:38:42;20.7;62.2
78708;SHT31;68037;51.978;5.650;2023-08-17T06:41:12;20.8;62.3
78708;SHT31;68037;51.978;5.650;2023-08-17T06:43:42;20.8;62.4
78708;SHT31;68037;51.978;5.650;2023-08-17T06:46:12;20.8;62.6
78708;SHT31;68037;51.978;5.650;2023-08-17T06:48:42;20.9;62.6
78708;SHT31;68037;51.978;5.650;2023-08-17T06:51:12;20.9;62.8
78708;SHT31;68037;51.978;5.650;2023-08-17T06:53:41;20.9;62.3
78708;SHT31;68037;51.978;5.650;2023-08-17T06:56:13;21.0;62.7
78708;SHT31;68037;51.978;5.650;2023-08-17T06:58:42;21.0;62.4
78708;SHT31;68037;51.978;5.650;2023-08-17T07:01:12;21.0;62.7
78708;SHT31;68037;51.978;5.650;2023-08-17T07:03:42;21.0;62.3
78708;SHT31;68037;51.978;5.650;2023-08-17T07:06:11;21.1;62.3
78708;SHT31;68037;51.978;5.650;2023-08-17T07:08:41;21.1;61.9
78708;SHT31;68037;51.978;5.650;2023-08-17T07:11:10;21.1;61.9
78708;SHT31;68037;51.978;5.650;2023-08-17T07:13:40;21.1;62.2
78708;SHT31;68037;51.978;5.650;2023-08-17T07:16:09;21.1;61.8
78708;SHT31;68037;51.978;5.650;2023-08-17T07:18:41;21.2;61.8
78708;SHT31;68037;51.978;5.650;2023-08-17T07:21:10;21.2;62.1
78708;SHT31;68037;51.978;5.650;2023-08-17T07:23:44;21.2;61.5
78708;SHT31;68037;51.978;5.650;2023-08-17T07:26:14;21.2;61.2
78708;SHT31;68037;51.978;5.650;2023-08-17T07:28:46;21.2;61.7
78708;SHT31;68037;51.978;5.650;2023-08-17T07:31:16;21.2;61.6
78708;SHT31;68037;51.978;5.650;2023-08-17T07:33:46;21.2;61.7
78708;SHT31;68037;51.978;5.650;2023-08-17T07:36:16;21.2;62.0
78708;SHT31;68037;51.978;5.650;2023-08-17T07:38:45;21.3;62.0
78708;SHT31;68037;51.978;5.650;2023-08-17T07:41:15;21.3;62.0
78708;SHT31;68037;51.978;5.650;2023-08-17T07:43:46;21.3;62.2
78708;SHT31;68037;51.978;5.650;2023-08-17T07:46:15;21.3;61.5
78708;SHT31;68037;51.978;5.650;2023-08-17T07:48:45;21.3;61.6
78708;SHT31;68037;51.978;5.650;2023-08-17T07:51:15;21.4;61.8
78708;SHT31;68037;51.978;5.650;2023-08-17T07:53:44;21.4;62.2
78708;SHT31;68037;51.978;5.650;2023-08-17T07:56:14;21.4;61.7
78708;SHT31;68037;51.978;5.650;2023-08-17T07:58:44;21.4;61.1
78708;SHT31;68037;51.978;5.650;2023-08-17T08:01:13;21.4;61.6
78708;SHT31;68037;51.978;5.650;2023-08-17T08:03:42;21.5;61.8
78708;SHT31;68037;51.978;5.650;2023-08-17T08:06:12;21.5;61.6
78708;SHT31;68037;51.978;5.650;2023-08-17T08:08:42;21.5;61.4
78708;SHT31;68037;51.978;5.650;2023-08-17T08:11:11;21.6;61.3
78708;SHT31;68037;51.978;5.650;2023-08-17T08:13:41;21.6;61.6
78708;SHT31;68037;51.978;5.650;2023-08-17T08:16:10;21.6;61.5
78708;SHT31;68037;51.978;5.650;2023-08-17T08:18:42;21.7;61.5
78708;SHT31;68037;51.978;5.650;2023-08-17T08:21:11;21.8;60.8
78708;SHT31;68037;51.978;5.650;2023-08-17T08:23:41;21.9;60.5
78708;SHT31;68037;51.978;5.650;2023-08-17T08:26:10;21.9;60.7
78708;SHT31;68037;51.978;5.650;2023-08-17T08:28:40;21.9;60.8
78708;SHT31;68037;51.978;5.650;2023-08-17T08:31:09;21.9;61.2
78708;SHT31;68037;51.978;5.650;2023-08-17T08:33:39;22.0;61.4
78708;SHT31;68037;51.978;5.650;2023-08-17T08:36:09;22.0;60.4
78708;SHT31;68037;51.978;5.650;2023-08-17T08:38:38;22.1;60.2
78708;SHT31;68037;51.978;5.650;2023-08-17T08:41:10;22.1;60.7
78708;SHT31;68037;51.978;5.650;2023-08-17T08:43:40;22.1;60.2
78708;SHT31;68037;51.978;5.650;2023-08-17T08:46:11;22.1;60.4
78708;SHT31;68037;51.978;5.650;2023-08-17T08:48:41;22.1;60.3
78708;SHT31;68037;51.978;5.650;2023-08-17T08:51:16;22.1;60.1
78708;SHT31;68037;51.978;5.650;2023-08-17T08:54:00;22.1;59.9
78708;SHT31;68037;51.978;5.650;2023-08-17T08:56:32;22.1;60.0
78708;SHT31;68037;51.978;5.650;2023-08-17T08:59:06;22.1;60.2
78708;SHT31;68037;51.978;5.650;2023-08-17T09:01:40;22.1;60.0
78708;SHT31;68037;51.978;5.650;2023-08-17T09:04:09;22.1;60.1
78708;SHT31;68037;51.978;5.650;2023-08-17T09:06:42;22.1;60.3
78708;SHT31;68037;51.978;5.650;2023-08-17T09:09:15;22.1;60.4
78708;SHT31;68037;51.978;5.650;2023-08-17T09:11:46;22.2;60.3
78708;SHT31;68037;51.978;5.650;2023-08-17T09:14:15;22.2;59.9
78708;SHT31;68037;51.978;5.650;2023-08-17T09:16:45;22.2;60.0
78708;SHT31;68037;51.978;5.650;2023-08-17T09:19:15;22.2;59.9
78708;SHT31;68037;51.978;5.650;2023-08-17T09:21:44;22.3;59.9
78708;SHT31;68037;51.978;5.650;2023-08-17T09:24:14;22.3;60.1
78708;SHT31;68037;51.978;5.650;2023-08-17T09:26:43;22.3;60.2
78708;SHT31;68037;51.978;5.650;2023-08-17T09:29:20;22.3;60.0
78708;SHT31;68037;51.978;5.650;2023-08-17T09:31:50;22.3;60.2
78708;SHT31;68037;51.978;5.650;2023-08-17T09:34:20;22.3;60.6
78708;SHT31;68037;51.978;5.650;2023-08-17T09:36:50;22.3;60.4
78708;SHT31;68037;51.978;5.650;2023-08-17T09:39:19;22.3;59.9
78708;SHT31;68037;51.978;5.650;2023-08-17T09:41:49;22.3;60.1
78708;SHT31;68037;51.978;5.650;2023-08-17T09:44:19;22.4;59.5
78708;SHT31;68037;51.978;5.650;2023-08-17T09:46:48;22.4;59.7
78708;SHT31;68037;51.978;5.650;2023-08-17T09:49:21;22.4;59.9
78708;SHT31;68037;51.978;5.650;2023-08-17T09:51:54;22.3;60.0
78708;SHT31;68037;51.978;5.650;2023-08-17T09:54:24;22.3;60.0
78708;SHT31;68037;51.978;5.650;2023-08-17T09:56:57;22.3;59.7
78708;SHT31;68037;51.978;5.650;2023-08-17T09:59:29;22.4;60.5
78708;SHT31;68037;51.978;5.650;2023-08-17T10:02:00;22.4;60.3
78708;SHT31;68037;51.978;5.650;2023-08-17T10:04:36;22.4;59.9
78708;SHT31;68037;51.978;5.650;2023-08-17T10:07:08;22.5;60.2
78708;SHT31;68037;51.978;5.650;2023-08-17T10:09:43;22.5;59.9
78708;SHT31;68037;51.978;5.650;2023-08-17T10:12:16;22.5;60.0
78708;SHT31;68037;51.978;5.650;2023-08-17T10:14:51;22.5;60.4
78708;SHT31;68037;51.978;5.650;2023-08-17T10:17:26;22.5;61.0
78708;SHT31;68037;51.978;5.650;2023-08-17T10:19:59;22.5;60.5
78708;SHT31;68037;51.978;5.650;2023-08-17T10:22:33;22.5;60.3
78708;SHT31;68037;51.978;5.650;2023-08-17T10:25:10;22.5;60.0
78708;SHT31;68037;51.978;5.650;2023-08-17T10:27:42;22.6;59.7
78708;SHT31;68037;51.978;5.650;2023-08-17T10:30:12;22.6;60.0
78708;SHT31;68037;51.978;5.650;2023-08-17T10:32:43;22.6;60.4
78708;SHT31;68037;51.978;5.650;2023-08-17T10:35:14;22.6;60.4
78708;SHT31;68037;51.978;5.650;2023-08-17T10:37:44;22.6;60.2
78708;SHT31;68037;51.978;5.650;2023-08-17T10:40:17;22.6;60.5
78708;SHT31;68037;51.978;5.650;2023-08-17T10:42:54;22.6;60.5
78708;SHT31;68037;51.978;5.650;2023-08-17T10:45:29;22.6;60.8
78708;SHT31;68037;51.978;5.650;2023-08-17T10:48:26;22.6;60.7
78708;SHT31;68037;51.978;5.650;2023-08-17T10:51:02;22.6;60.4
78708;SHT31;68037;51.978;5.650;2023-08-17T10:53:37;22.7;60.1
78708;SHT31;68037;51.978;5.650;2023-08-17T10:56:13;22.7;60.3
78708;SHT31;68037;51.978;5.650;2023-08-17T10:58:46;22.7;59.9
78708;SHT31;68037;51.978;5.650;2023-08-17T11:01:32;22.7;59.7
78708;SHT31;68037;51.978;5.650;2023-08-17T11:04:15;22.8;59.6
78708;SHT31;68037;51.978;5.650;2023-08-17T11:06:52;22.8;60.2
78708;SHT31;68037;51.978;5.650;2023-08-17T11:09:25;22.8;60.1
78708;SHT31;68037;51.978;5.650;2023-08-17T11:11:54;22.8;59.9
78708;SHT31;68037;51.978;5.650;2023-08-17T11:14:26;22.8;60.0
78708;SHT31;68037;51.978;5.650;2023-08-17T11:17:02;22.8;60.1
78708;SHT31;68037;51.978;5.650;2023-08-17T11:19:32;22.9;59.8
78708;SHT31;68037;51.978;5.650;2023-08-17T11:22:02;22.9;59.7
78708;SHT31;68037;51.978;5.650;2023-08-17T11:24:32;22.9;60.2
78708;SHT31;68037;51.978;5.650;2023-08-17T11:27:07;22.9;59.9
78708;SHT31;68037;51.978;5.650;2023-08-17T11:29:38;23.0;59.7
78708;SHT31;68037;51.978;5.650;2023-08-17T11:32:10;23.0;60.0
78708;SHT31;68037;51.978;5.650;2023-08-17T11:34:40;23.0;60.2
78708;SHT31;68037;51.978;5.650;2023-08-17T11:37:11;23.1;60.4
78708;SHT31;68037;51.978;5.650;2023-08-17T11:39:42;23.2;59.5
78708;SHT31;68037;51.978;5.650;2023-08-17T11:42:12;23.2;59.5
78708;SHT31;68037;51.978;5.650;2023-08-17T11:44:42;23.3;58.8
78708;SHT31;68037;51.978;5.650;2023-08-17T11:47:12;23.4;58.7
78708;SHT31;68037;51.978;5.650;2023-08-17T11:49:41;23.4;59.0
78708;SHT31;68037;51.978;5.650;2023-08-17T11:52:12;23.5;58.9
78708;SHT31;68037;51.978;5.650;2023-08-17T11:54:42;23.5;58.6
78708;SHT31;68037;51.978;5.650;2023-08-17T11:57:11;23.5;58.8
78708;SHT31;68037;51.978;5.650;2023-08-17T11:59:41;23.6;58.8
78708;SHT31;68037;51.978;5.650;2023-08-17T12:02:10;23.6;58.0
78708;SHT31;68037;51.978;5.650;2023-08-17T12:04:43;23.6;58.2
78708;SHT31;68037;51.978;5.650;2023-08-17T12:07:13;23.6;58.1
78708;SHT31;68037;51.978;5.650;2023-08-17T12:09:44;23.6;58.1
78708;SHT31;68037;51.978;5.650;2023-08-17T12:12:17;23.6;58.1
78708;SHT31;68037;51.978;5.650;2023-08-17T12:14:48;23.5;58.1
78708;SHT31;68037;51.978;5.650;2023-08-17T12:17:19;23.5;58.2
78708;SHT31;68037;51.978;5.650;2023-08-17T12:19:54;23.5;58.3
78708;SHT31;68037;51.978;5.650;2023-08-17T12:22:25;23.5;58.4
78708;SHT31;68037;51.978;5.650;2023-08-17T12:24:56;23.4;58.5
78708;SHT31;68037;51.978;5.650;2023-08-17T12:27:29;23.4;58.7
78708;SHT31;68037;51.978;5.650;2023-08-17T12:29:58;23.4;59.1
78708;SHT31;68037;51.978;5.650;2023-08-17T12:32:28;23.4;59.8
78708;SHT31;68037;51.978;5.650;2023-08-17T12:34:57;23.4;59.9
78708;SHT31;68037;51.978;5.650;2023-08-17T12:37:27;23.4;59.1
78708;SHT31;68037;51.978;5.650;2023-08-17T12:39:56;23.4;59.5
78708;SHT31;68037;51.978;5.650;2023-08-17T12:42:26;23.4;59.9
78708;SHT31;68037;51.978;5.650;2023-08-17T12:44:56;23.4;59.5
78708;SHT31;68037;51.978;5.650;2023-08-17T12:47:26;23.5;59.5
78708;SHT31;68037;51.978;5.650;2023-08-17T12:49:55;23.5;59.3
78708;SHT31;68037;51.978;5.650;2023-08-17T12:52:25;23.5;59.3
78708;SHT31;68037;51.978;5.650;2023-08-17T12:54:55;23.6;59.0
78708;SHT31;68037;51.978;5.650;2023-08-17T12:57:25;23.6;58.9
78708;SHT31;68037;51.978;5.650;2023-08-17T12:59:54;23.6;58.7
78708;SHT31;68037;51.978;5.650;2023-08-17T13:02:27;23.6;58.7
78708;SHT31;68037;51.978;5.650;2023-08-17T13:04:56;23.6;59.1
78708;SHT31;68037;51.978;5.650;2023-08-17T13:07:26;23.6;58.8
78708;SHT31;68037;51.978;5.650;2023-08-17T13:09:57;23.6;58.9
78708;SHT31;68037;51.978;5.650;2023-08-17T13:12:26;23.6;58.6
78708;SHT31;68037;51.978;5.650;2023-08-17T13:14:56;23.6;58.8
78708;SHT31;68037;51.978;5.650;2023-08-17T13:17:25;23.6;58.8
78708;SHT31;68037;51.978;5.650;2023-08-17T13:19:55;23.6;58.9
78708;SHT31;68037;51.978;5.650;2023-08-17T13:22:24;23.6;59.2
78708;SHT31;68037;51.978;5.650;2023-08-17T13:24:54;23.6;59.2
78708;SHT31;68037;51.978;5.650;2023-08-17T13:27:24;23.6;59.7
78708;SHT31;68037;51.978;5.650;2023-08-17T13:29:54;23.6;59.5
78708;SHT31;68037;51.978;5.650;2023-08-17T13:32:26;23.6;59.0
78708;SHT31;68037;51.978;5.650;2023-08-17T13:34:55;23.6;59.3
78708;SHT31;68037;51.978;5.650;2023-08-17T13:37:25;23.6;59.4
78708;SHT31;68037;51.978;5.650;2023-08-17T13:39:55;23.6;59.7
78708;SHT31;68037;51.978;5.650;2023-08-17T13:42:25;23.6;59.7
78708;SHT31;68037;51.978;5.650;2023-08-17T13:44:55;23.6;59.5
78708;SHT31;68037;51.978;5.650;2023-08-17T13:47:24;23.6;59.2
78708;SHT31;68037;51.978;5.650;2023-08-17T13:49:56;23.6;59.0
78708;SHT31;68037;51.978;5.650;2023-08-17T13:52:25;23.6;59.4
78708;SHT31;68037;51.978;5.650;2023-08-17T13:54:55;23.6;60.0
78708;SHT31;68037;51.978;5.650;2023-08-17T13:57:24;23.6;59.7
78708;SHT31;68037;51.978;5.650;2023-08-17T13:59:54;23.6;59.7
78708;SHT31;68037;51.978;5.650;2023-08-17T14:02:27;23.6;59.9
78708;SHT31;68037;51.978;5.650;2023-08-17T14:04:58;23.6;59.8
78708;SHT31;68037;51.978;5.650;2023-08-17T14:07:28;23.6;60.2
78708;SHT31;68037;51.978;5.650;2023-08-17T14:09:57;23.6;60.4
78708;SHT31;68037;51.978;5.650;2023-08-17T14:12:28;23.6;60.3
78708;SHT31;68037;51.978;5.650;2023-08-17T14:14:58;23.7;60.2
78708;SHT31;68037;51.978;5.650;2023-08-17T14:17:28;23.7;59.9
78708;SHT31;68037;51.978;5.650;2023-08-17T14:19:57;23.8;59.5
78708;SHT31;68037;51.978;5.650;2023-08-17T14:22:28;23.8;59.7
78708;SHT31;68037;51.978;5.650;2023-08-17T14:24:58;23.8;59.5
78708;SHT31;68037;51.978;5.650;2023-08-17T14:27:30;23.8;59.6
78708;SHT31;68037;51.978;5.650;2023-08-17T14:30:00;23.9;59.5
78708;SHT31;68037;51.978;5.650;2023-08-17T14:32:31;23.9;59.2
78708;SHT31;68037;51.978;5.650;2023-08-17T14:35:01;23.9;59.0
78708;SHT31;68037;51.978;5.650;2023-08-17T14:37:31;23.9;59.2
78708;SHT31;68037;51.978;5.650;2023-08-17T14:40:01;23.8;59.4
78708;SHT31;68037;51.978;5.650;2023-08-17T14:42:31;23.8;59.4
78708;SHT31;68037;51.978;5.650;2023-08-17T14:45:00;23.8;59.9
78708;SHT31;68037;51.978;5.650;2023-08-17T14:47:31;23.8;59.7
78708;SHT31;68037;51.978;5.650;2023-08-17T14:50:00;23.8;59.8
78708;SHT31;68037;51.978;5.650;2023-08-17T14:52:32;23.8;59.7
78708;SHT31;68037;51.978;5.650;2023-08-17T14:55:01;23.7;59.8
78708;SHT31;68037;51.978;5.650;2023-08-17T14:57:31;23.7;60.0
78708;SHT31;68037;51.978;5.650;2023-08-17T15:00:01;23.7;60.0
78708;SHT31;68037;51.978;5.650;2023-08-17T15:02:33;23.7;60.3
78708;SHT31;68037;51.978;5.650;2023-08-17T15:05:03;23.7;60.8
78708;SHT31;68037;51.978;5.650;2023-08-17T15:07:33;23.7;60.5
78708;SHT31;68037;51.978;5.650;2023-08-17T15:10:02;23.8;60.7
78708;SHT31;68037;51.978;5.650;2023-08-17T15:12:34;23.8;60.6
78708;SHT31;68037;51.978;5.650;2023-08-17T15:15:04;23.7;60.3
78708;SHT31;68037;51.978;5.650;2023-08-17T15:17:33;23.7;60.4
78708;SHT31;68037;51.978;5.650;2023-08-17T15:20:03;23.7;60.5
78708;SHT31;68037;51.978;5.650;2023-08-17T15:22:33;23.7;60.8
78708;SHT31;68037;51.978;5.650;2023-08-17T15:25:03;23.7;60.7
78708;SHT31;68037;51.978;5.650;2023-08-17T15:27:32;23.7;60.8
78708;SHT31;68037;51.978;5.650;2023-08-17T15:30:02;23.7;61.0
78708;SHT31;68037;51.978;5.650;2023-08-17T15:32:32;23.7;60.9
78708;SHT31;68037;51.978;5.650;2023-08-17T15:35:01;23.6;61.1
78708;SHT31;68037;51.978;5.650;2023-08-17T15:37:32;23.6;61.0
78708;SHT31;68037;51.978;5.650;2023-08-17T15:40:05;23.6;61.1
78708;SHT31;68037;51.978;5.650;2023-08-17T15:42:35;23.6;61.2
78708;SHT31;68037;51.978;5.650;2023-08-17T15:45:05;23.6;61.4
78708;SHT31;68037;51.978;5.650;2023-08-17T15:47:35;23.6;60.9
78708;SHT31;68037;51.978;5.650;2023-08-17T15:50:05;23.6;61.2
78708;SHT31;68037;51.978;5.650;2023-08-17T15:52:34;23.6;61.3
78708;SHT31;68037;51.978;5.650;2023-08-17T15:55:04;23.6;61.7
78708;SHT31;68037;51.978;5.650;2023-08-17T15:57:34;23.7;61.4
78708;SHT31;68037;51.978;5.650;2023-08-17T16:00:04;23.7;61.2
78708;SHT31;68037;51.978;5.650;2023-08-17T16:02:34;23.7;61.0
78708;SHT31;68037;51.978;5.650;2023-08-17T16:05:04;23.7;60.9
78708;SHT31;68037;51.978;5.650;2023-08-17T16:07:35;23.7;60.9
78708;SHT31;68037;51.978;5.650;2023-08-17T16:10:05;23.7;60.9
78708;SHT31;68037;51.978;5.650;2023-08-17T16:12:35;23.7;61.0
78708;SHT31;68037;51.978;5.650;2023-08-17T16:15:05;23.7;61.2
78708;SHT31;68037;51.978;5.650;2023-08-17T16:17:35;23.7;61.2
78708;SHT31;68037;51.978;5.650;2023-08-17T16:20:05;23.7;61.1
78708;SHT31;68037;51.978;5.650;2023-08-17T16:22:35;23.7;61.0
78708;SHT31;68037;51.978;5.650;2023-08-17T16:25:05;23.7;61.9